Time;durP1;ratioP1;P1;durP2;ratioP2;P2;SDS_P1;SDS_P2;PMS_P1;PMS_P2;Temp;Humidity;BMP_temperature;BMP_pressure;BME280_temperature;BME280_humidity;BME280_pressure;Samples;Min_cycle;Max_cycle;Signal;HPM_P1;HPM_P2
2021/09/25 00:01:55;;;;;;;41.47;39.45;;;;;;;12.56;100.00;98263.97;5038767;28;20026;-83
2021/09/25 00:04:20;;;;;;;44.13;41.92;;;;;;;12.37;100.00;98267.88;5038618;28;20025;-84
2021/09/25 00:06:46;;;;;;;45.78;43.50;;;;;;;12.51;100.00;98266.81;5038454;28;20017;-81
2021/09/25 00:09:12;;;;;;;44.97;42.45;;;;;;;12.47;100.00;98265.00;5038418;28;20026;-84
2021/09/25 00:11:37;;;;;;;37.60;35.70;;;;;;;12.56;100.00;98261.22;5038203;28;20026;-80
2021/09/25 00:14:02;;;;;;;38.50;36.70;;;;;;;12.74;100.00;98260.38;5038596;28;20018;-79
2021/09/25 00:16:28;;;;;;;36.50;34.90;;;;;;;12.68;100.00;98256.09;5035501;28;20037;-88
2021/09/25 00:18:56;;;;;;;36.35;34.35;;;;;;;12.38;100.00;98262.09;5037757;28;20074;-84
2021/09/25 00:21:22;;;;;;;36.80;34.90;;;;;;;12.11;100.00;98267.47;5038140;28;20026;-79
2021/09/25 00:23:47;;;;;;;34.78;32.83;;;;;;;12.29;100.00;98267.44;5020654;28;20041;-83
2021/09/25 00:26:13;;;;;;;34.67;32.92;;;;;;;12.01;100.00;98270.34;5038383;28;20010;-86
2021/09/25 00:28:38;;;;;;;37.13;35.10;;;;;;;11.82;100.00;98270.34;5037641;28;20061;-85
2021/09/25 00:31:04;;;;;;;35.85;33.80;;;;;;;11.67;100.00;98254.09;5037745;28;20053;-80
2021/09/25 00:33:29;;;;;;;33.60;32.00;;;;;;;11.67;100.00;98265.06;5037771;28;20010;-82
2021/09/25 00:35:54;;;;;;;35.92;33.95;;;;;;;11.79;100.00;98263.53;5021132;28;20022;-78
2021/09/25 00:38:20;;;;;;;39.30;37.50;;;;;;;11.86;100.00;98273.31;5038178;28;20048;-81
2021/09/25 00:40:45;;;;;;;35.70;34.10;;;;;;;12.00;100.00;98272.28;5037946;28;20034;-83
2021/09/25 00:43:11;;;;;;;36.65;34.85;;;;;;;12.04;100.00;98269.75;5020605;28;20010;-79
2021/09/25 00:45:38;;;;;;;31.58;29.88;;;;;;;12.00;100.00;98265.97;5020850;28;20025;-80
2021/09/25 00:48:04;;;;;;;33.80;32.08;;;;;;;12.11;100.00;98278.44;5037656;28;20022;-80
2021/09/25 00:50:30;;;;;;;33.47;31.77;;;;;;;11.81;100.00;98274.19;5038102;28;20028;-79
2021/09/25 00:52:55;;;;;;;33.70;32.10;;;;;;;12.12;100.00;98282.81;5038153;28;20066;-78
2021/09/25 00:55:22;;;;;;;35.75;34.03;;;;;;;11.64;100.00;98277.41;5038404;28;20033;-80
2021/09/25 00:57:58;;;;;;;38.25;36.20;;;;;;;11.79;100.00;98282.72;5038117;28;20073;-79
2021/09/25 01:00:25;;;;;;;41.85;39.78;;;;;;;11.89;100.00;98281.78;5021187;28;20082;-80
2021/09/25 01:02:51;;;;;;;43.40;41.28;;;;;;;11.70;100.00;98273.53;5037938;28;20049;-80
2021/09/25 01:05:20;;;;;;;50.10;47.65;;;;;;;11.64;100.00;98276.59;5037555;28;20034;-79
2021/09/25 01:07:45;;;;;;;54.00;51.22;;;;;;;11.82;100.00;98284.88;5021148;28;20006;-80
2021/09/25 01:10:11;;;;;;;84.65;80.90;;;;;;;11.76;100.00;98277.84;5037875;28;20104;-80
2021/09/25 01:12:37;;;;;;;96.53;92.22;;;;;;;11.58;100.00;98278.59;5037832;28;20022;-80
2021/09/25 01:15:04;;;;;;;95.32;90.78;;;;;;;11.68;100.00;98274.91;5037879;28;20018;-80
2021/09/25 01:17:30;;;;;;;97.55;93.25;;;;;;;11.54;100.00;98274.81;5038054;28;20025;-80
2021/09/25 01:19:55;;;;;;;76.18;72.63;;;;;;;11.73;100.00;98274.88;5020879;28;20022;-81
2021/09/25 01:22:22;;;;;;;97.88;93.25;;;;;;;11.63;100.00;98281.25;5020846;28;20048;-79
2021/09/25 01:24:47;;;;;;;83.90;79.60;;;;;;;11.72;100.00;98285.00;5037962;28;20018;-80
2021/09/25 01:27:13;;;;;;;94.38;90.03;;;;;;;11.60;100.00;98281.03;5037906;28;20029;-79
2021/09/25 01:29:38;;;;;;;89.60;85.70;;;;;;;11.32;100.00;98274.53;5037699;28;20033;-80
2021/09/25 01:32:05;;;;;;;82.63;78.88;;;;;;;11.22;100.00;98275.47;5037636;28;20022;-81
2021/09/25 02:35:57;;;;;;;38.65;36.83;;;;;;;11.26;100.00;98311.31;5756904;23;20051;-87
2021/09/25 02:38:23;;;;;;;44.80;42.60;;;;;;;11.26;100.00;98283.91;4974970;28;20046;-87
2021/09/25 02:40:53;;;;;;;39.03;37.13;;;;;;;11.10;100.00;98269.59;4970888;28;20019;-81
2021/09/25 02:43:20;;;;;;;38.38;36.03;;;;;;;11.19;100.00;98291.66;4980678;28;20015;-80
2021/09/25 02:52:32;;;;;;;34.92;33.17;;;;;;;11.04;100.00;98291.84;4982858;28;20023;-80
2021/09/25 02:54:58;;;;;;;32.40;30.80;;;;;;;11.16;100.00;98289.50;4981182;28;20034;-80
2021/09/25 02:57:24;;;;;;;34.17;32.45;;;;;;;11.27;100.00;98293.78;4978997;28;20039;-80
2021/09/25 02:59:49;;;;;;;37.05;35.33;;;;;;;11.15;100.00;98287.88;4980995;28;20003;-81
2021/09/25 03:02:17;;;;;;;32.40;30.85;;;;;;;10.93;100.00;98282.91;4980964;28;20011;-80
2021/09/25 03:04:43;;;;;;;34.00;32.30;;;;;;;10.92;100.00;98310.56;4981141;28;20030;-80
2021/09/25 03:07:09;;;;;;;35.90;33.90;;;;;;;10.59;100.00;98288.44;4981191;28;20022;-85
2021/09/25 03:09:35;;;;;;;31.95;30.40;;;;;;;10.45;100.00;98295.66;4970881;28;20038;-80
2021/09/25 03:12:01;;;;;;;36.85;35.05;;;;;;;10.83;100.00;98323.25;4979421;28;20007;-86
2021/09/25 03:14:26;;;;;;;42.28;39.85;;;;;;;11.14;100.00;98314.44;4965585;29;20022;-87
2021/09/25 03:16:53;;;;;;;42.88;40.55;;;;;;;10.90;100.00;98321.78;4963624;29;20028;-85
2021/09/25 03:19:18;;;;;;;43.63;41.15;;;;;;;10.73;100.00;98316.75;4964019;29;20035;-88
2021/09/25 03:21:44;;;;;;;44.95;42.63;;;;;;;10.67;100.00;98322.56;4964393;29;20078;-87
2021/09/25 03:24:09;;;;;;;48.95;46.25;;;;;;;10.91;100.00;98319.88;4965501;29;20031;-87
2021/09/25 03:26:34;;;;;;;51.90;49.25;;;;;;;10.75;100.00;98327.41;4975103;28;20011;-87
2021/09/25 03:29:00;;;;;;;52.15;49.42;;;;;;;10.57;100.00;98328.94;4968884;28;20039;-86
2021/09/25 03:31:25;;;;;;;44.03;41.90;;;;;;;10.84;100.00;98320.22;4967151;28;20027;-87
2021/09/25 03:33:51;;;;;;;45.63;43.33;;;;;;;10.89;100.00;98325.66;4949107;29;20027;-87
2021/09/25 03:36:16;;;;;;;54.63;52.03;;;;;;;10.80;100.00;98324.66;4988457;28;20071;-86
2021/09/25 03:38:42;;;;;;;52.63;50.28;;;;;;;10.72;100.00;98317.84;4972908;28;20503;-87
2021/09/25 03:41:07;;;;;;;50.67;48.20;;;;;;;10.54;100.00;98324.03;4968076;28;20046;-86
2021/09/25 03:43:33;;;;;;;37.88;35.80;;;;;;;10.30;100.00;98325.06;4967945;28;20049;-89
2021/09/25 03:45:59;;;;;;;36.30;34.55;;;;;;;10.18;100.00;98333.59;4967085;28;20050;-88
2021/09/25 03:48:24;;;;;;;41.35;39.38;;;;;;;10.09;100.00;98324.31;4983588;28;20035;-87
2021/09/25 03:50:49;;;;;;;42.63;40.63;;;;;;;10.04;100.00;98327.91;4973321;28;20082;-81
2021/09/25 03:53:15;;;;;;;51.42;48.58;;;;;;;10.04;100.00;98324.38;4981827;28;20030;-85
2021/09/25 03:55:42;;;;;;;48.63;46.50;;;;;;;9.89;100.00;98324.47;4981201;28;20014;-84
2021/09/25 03:58:07;;;;;;;50.53;48.10;;;;;;;9.87;100.00;98324.72;4991056;28;20035;-88
2021/09/25 04:00:33;;;;;;;45.97;43.80;;;;;;;9.87;100.00;98332.09;4966118;28;20388;-88
2021/09/25 04:02:58;;;;;;;48.00;45.67;;;;;;;9.79;100.00;98314.41;4968739;28;20779;-87
2021/09/25 04:05:23;;;;;;;57.45;54.03;;;;;;;9.79;100.00;98319.03;4975758;28;20030;-87
2021/09/25 04:07:49;;;;;;;49.25;46.72;;;;;;;9.75;100.00;98328.88;4992858;28;20063;-85
2021/09/25 04:10:16;;;;;;;63.13;60.28;;;;;;;9.83;100.00;98336.50;4997734;28;20034;-84
2021/09/25 04:12:41;;;;;;;85.70;81.95;;;;;;;9.85;100.00;98339.78;4981693;28;20107;-89
2021/09/25 04:15:09;;;;;;;112.90;107.90;;;;;;;9.86;100.00;98335.94;4996326;28;20086;-85
2021/09/25 04:17:37;;;;;;;113.45;108.30;;;;;;;9.83;100.00;98334.59;4973936;28;20043;-89
2021/09/25 04:20:05;;;;;;;95.63;91.40;;;;;;;10.14;100.00;98351.66;4977599;28;20027;-86
2021/09/25 04:22:30;;;;;;;103.78;98.07;;;;;;;10.04;100.00;98351.69;4975701;28;20043;-87
2021/09/25 04:24:56;;;;;;;89.13;85.18;;;;;;;9.96;100.00;98352.28;4962758;29;20075;-88
2021/09/25 04:27:21;;;;;;;67.15;64.30;;;;;;;9.91;100.00;98355.03;4963280;29;20031;-86
2021/09/25 04:29:46;;;;;;;60.05;56.97;;;;;;;10.11;100.00;98360.41;4947170;29;20043;-86
2021/09/25 04:32:12;;;;;;;57.13;54.28;;;;;;;9.99;100.00;98359.94;4954439;29;20046;-86
2021/09/25 04:34:37;;;;;;;51.33;48.80;;;;;;;9.88;100.00;98363.78;4948139;29;20037;-87
2021/09/25 04:37:03;;;;;;;47.92;45.70;;;;;;;9.89;100.00;98366.25;4962306;29;20057;-87
2021/09/25 04:39:28;;;;;;;49.83;47.45;;;;;;;10.11;100.00;98365.88;4970901;29;20070;-87
2021/09/25 04:41:54;;;;;;;47.42;45.17;;;;;;;10.39;100.00;98372.56;4974749;29;20007;-88
2021/09/25 04:44:19;;;;;;;38.63;36.58;;;;;;;10.28;100.00;98365.50;4975911;29;20050;-86
2021/09/25 04:46:46;;;;;;;38.85;36.97;;;;;;;10.08;100.00;98369.16;4958610;28;20039;-85
2021/09/25 04:49:11;;;;;;;41.70;39.53;;;;;;;10.05;100.00;98365.09;4977739;29;20035;-86
2021/09/25 04:51:37;;;;;;;43.83;41.63;;;;;;;10.19;100.00;98371.59;4963053;28;20039;-87
2021/09/25 04:54:04;;;;;;;44.28;42.28;;;;;;;10.29;100.00;98372.63;4940407;29;20523;-86
2021/09/25 04:56:33;;;;;;;44.90;42.55;;;;;;;10.22;100.00;98372.94;4956295;29;20031;-84
2021/09/25 04:58:58;;;;;;;38.67;36.63;;;;;;;10.10;100.00;98377.91;4973092;29;20059;-88
2021/09/25 05:01:23;;;;;;;44.75;42.50;;;;;;;10.35;100.00;98364.09;4969742;29;20031;-87
2021/09/25 05:03:49;;;;;;;66.97;62.67;;;;;;;10.26;100.00;98371.28;4954266;29;20113;-87
2021/09/25 05:06:15;;;;;;;45.03;42.78;;;;;;;10.30;100.00;98379.72;4975322;29;20076;-88
2021/09/25 05:08:41;;;;;;;40.60;38.65;;;;;;;10.14;100.00;98377.09;4975798;28;20043;-83
2021/09/25 05:11:06;;;;;;;40.72;38.72;;;;;;;10.03;100.00;98374.66;4976966;28;20050;-85
2021/09/25 05:13:32;;;;;;;44.78;42.67;;;;;;;10.08;100.00;98382.84;4976667;29;20031;-86
2021/09/25 05:15:57;;;;;;;44.90;42.47;;;;;;;10.18;100.00;98380.06;4975845;29;20030;-87
2021/09/25 05:18:23;;;;;;;42.65;40.72;;;;;;;10.15;100.00;98383.34;4957930;28;20062;-87
2021/09/25 05:20:49;;;;;;;43.30;41.50;;;;;;;10.10;100.00;98375.16;4975002;29;20018;-86
2021/09/25 05:23:15;;;;;;;46.25;44.25;;;;;;;10.12;100.00;98381.97;4959172;29;20018;-85
2021/09/25 05:25:41;;;;;;;47.38;45.22;;;;;;;10.01;100.00;98387.78;4972638;29;20036;-87
2021/09/25 05:28:06;;;;;;;39.83;37.90;;;;;;;9.79;100.00;98379.13;4973090;29;20036;-86
2021/09/25 05:30:32;;;;;;;38.35;36.67;;;;;;;9.67;100.00;98388.47;4953411;29;20070;-88
2021/09/25 05:32:57;;;;;;;38.30;36.53;;;;;;;9.54;100.00;98386.34;4974898;28;20091;-87
2021/09/25 05:35:23;;;;;;;43.38;41.00;;;;;;;9.53;100.00;98387.44;4961059;29;20008;-87
2021/09/25 05:37:48;;;;;;;47.78;45.42;;;;;;;9.46;100.00;98386.88;4978809;28;20098;-84
2021/09/25 05:40:14;;;;;;;50.90;48.55;;;;;;;9.67;100.00;98391.22;4964542;28;20035;-86
2021/09/25 05:42:40;;;;;;;45.33;43.17;;;;;;;9.88;100.00;98391.13;4977625;28;20039;-88
2021/09/25 05:45:06;;;;;;;48.05;45.97;;;;;;;9.69;100.00;98399.94;4962532;28;20125;-85
2021/09/25 05:47:31;;;;;;;49.60;47.40;;;;;;;9.65;100.00;98395.28;4978338;28;20050;-88
2021/09/25 05:49:57;;;;;;;48.15;45.95;;;;;;;9.65;100.00;98387.09;4977370;29;20028;-86
2021/09/25 05:52:22;;;;;;;47.45;45.05;;;;;;;9.55;100.00;98384.44;4958345;29;20042;-86
2021/09/25 05:54:48;;;;;;;44.20;42.08;;;;;;;9.59;100.00;98388.22;4961704;29;20023;-89
2021/09/25 05:57:13;;;;;;;40.03;38.25;;;;;;;9.74;100.00;98396.38;4979530;29;20031;-86
2021/09/25 05:59:39;;;;;;;39.30;37.25;;;;;;;9.91;100.00;98398.75;4980042;28;20024;-87
2021/09/25 06:02:05;;;;;;;43.78;41.67;;;;;;;10.26;100.00;98401.34;4962167;29;20027;-85
2021/09/25 06:04:32;;;;;;;50.97;48.33;;;;;;;10.26;100.00;98395.06;4975873;29;20023;-87
2021/09/25 06:06:58;;;;;;;46.97;44.88;;;;;;;10.35;100.00;98405.13;4974434;29;20027;-86
2021/09/25 06:09:23;;;;;;;43.85;41.03;;;;;;;10.50;100.00;98396.81;4974466;29;20023;-85
2021/09/25 06:11:52;;;;;;;44.65;42.58;;;;;;;10.71;100.00;98406.50;4968567;29;20019;-87
2021/09/25 06:14:18;;;;;;;29.20;27.65;;;;;;;10.93;100.00;98402.53;4974760;29;20059;-86
2021/09/25 06:16:44;;;;;;;33.10;30.55;;;;;;;11.09;100.00;98418.50;4978020;28;20026;-86
2021/09/25 06:19:11;;;;;;;31.48;29.98;;;;;;;11.58;100.00;98406.56;4975812;28;20054;-86
2021/09/25 06:21:37;;;;;;;69.82;66.78;;;;;;;11.61;100.00;98408.72;4978811;28;20015;-86
2021/09/25 06:24:02;;;;;;;56.35;53.65;;;;;;;11.56;100.00;98409.56;4977574;28;20039;-87
2021/09/25 06:26:28;;;;;;;46.25;44.17;;;;;;;11.64;100.00;98408.13;4980476;28;20058;-87
2021/09/25 06:28:53;;;;;;;47.38;45.08;;;;;;;11.82;100.00;98413.69;4982246;28;20019;-86
2021/09/25 06:31:19;;;;;;;42.83;40.92;;;;;;;12.04;100.00;98409.59;4993013;28;20045;-86
2021/09/25 06:33:45;;;;;;;37.58;35.67;;;;;;;12.22;100.00;98414.28;4989894;28;20015;-82
2021/09/25 06:36:11;;;;;;;29.27;27.77;;;;;;;12.40;100.00;98418.19;4948730;28;1335009;-88
2021/09/25 06:38:40;;;;;;;31.30;29.40;;;;;;;12.57;100.00;98424.78;4983191;28;20253;-87
2021/09/25 06:41:09;;;;;;;38.13;36.42;;;;;;;12.70;100.00;98417.72;4994880;28;20119;-86
2021/09/25 06:43:35;;;;;;;33.35;31.75;;;;;;;12.84;100.00;98415.88;4990915;28;20102;-84
2021/09/25 06:46:02;;;;;;;29.08;27.40;;;;;;;12.94;100.00;98432.16;4999736;28;20035;-87
2021/09/25 06:48:27;;;;;;;38.67;36.97;;;;;;;13.32;98.70;98419.22;4995933;28;20488;-86
2021/09/25 06:50:53;;;;;;;34.05;32.25;;;;;;;13.46;98.66;98431.06;4975261;28;20049;-83
2021/09/25 06:53:18;;;;;;;28.98;27.55;;;;;;;13.38;99.84;98429.00;4975907;28;20123;-84
2021/09/25 06:55:44;;;;;;;26.60;25.20;;;;;;;13.24;100.00;98434.47;4980694;28;20022;-83
2021/09/25 06:58:09;;;;;;;25.13;23.92;;;;;;;13.32;100.00;98432.94;4966015;28;20054;-84
2021/09/25 07:00:35;;;;;;;30.02;28.45;;;;;;;13.42;99.49;98427.28;4957639;29;20380;-83
2021/09/25 07:03:01;;;;;;;29.15;27.58;;;;;;;13.59;98.43;98429.47;4957069;29;20043;-82
2021/09/25 07:05:27;;;;;;;36.58;34.88;;;;;;;13.81;97.25;98429.59;4953357;29;20490;-82
2021/09/25 07:07:53;;;;;;;37.25;35.45;;;;;;;14.12;95.57;98440.78;4962338;29;20053;-83
2021/09/25 07:10:18;;;;;;;26.48;24.98;;;;;;;13.94;96.00;98443.31;4961224;29;20031;-85
2021/09/25 07:12:44;;;;;;;35.13;33.38;;;;;;;14.12;95.41;98443.53;4957174;29;20479;-85
2021/09/25 07:15:11;;;;;;;29.33;27.58;;;;;;;14.79;91.38;98439.88;4954524;29;20027;-88
2021/09/25 07:17:37;;;;;;;30.77;29.25;;;;;;;15.02;89.05;98452.56;4957274;28;20089;-81
2021/09/25 07:20:08;;;;;;;28.80;27.48;;;;;;;15.11;89.42;98441.59;4955933;29;20597;-84
2021/09/25 07:22:34;;;;;;;34.28;31.33;;;;;;;15.07;88.89;98440.59;4939615;29;20388;-84
2021/09/25 07:24:59;;;;;;;24.58;23.48;;;;;;;15.34;88.07;98453.47;4957605;29;20026;-81
2021/09/25 07:27:26;;;;;;;24.55;23.27;;;;;;;14.92;90.38;98447.28;4952981;29;20024;-84
2021/09/25 07:29:52;;;;;;;29.02;27.55;;;;;;;15.26;88.43;98451.44;4949229;29;20038;-83
2021/09/25 07:32:18;;;;;;;28.35;27.00;;;;;;;15.73;86.31;98442.53;4947392;29;20027;-80
2021/09/25 07:34:44;;;;;;;25.98;24.73;;;;;;;16.61;81.68;98424.00;4952506;29;20031;-83
2021/09/25 07:37:10;;;;;;;38.58;36.83;;;;;;;17.78;75.07;98443.13;4951959;28;20077;-78
2021/09/25 07:39:36;;;;;;;27.60;26.30;;;;;;;18.26;74.13;98446.38;4944894;29;20716;-78
2021/09/25 07:42:02;;;;;;;24.88;23.77;;;;;;;19.99;64.99;98444.63;4934145;29;20050;-80
2021/09/25 07:44:28;;;;;;;24.67;22.90;;;;;;;18.01;72.01;98439.78;4952527;28;20106;-78
2021/09/25 07:46:53;;;;;;;26.08;24.73;;;;;;;19.60;68.31;98440.50;4955176;28;20023;-79
2021/09/25 07:49:19;;;;;;;23.40;21.83;;;;;;;20.42;64.62;98448.88;4952314;28;20031;-79
2021/09/25 07:51:50;;;;;;;20.20;19.10;;;;;;;20.70;63.52;98452.56;4947789;28;20555;-79
2021/09/25 07:54:16;;;;;;;19.85;18.85;;;;;;;18.86;67.59;98423.06;4961234;28;20553;-79
2021/09/25 07:56:41;;;;;;;19.70;18.42;;;;;;;19.47;66.15;98443.59;4953831;28;20035;-77
2021/09/25 07:59:06;;;;;;;21.65;20.30;;;;;;;19.67;64.83;98449.06;4955941;28;20388;-84
2021/09/25 08:01:32;;;;;;;15.73;14.68;;;;;;;22.16;57.84;98453.66;4955976;28;20100;-77
2021/09/25 08:04:00;;;;;;;15.50;14.75;;;;;;;22.97;54.91;98466.00;4945607;29;20535;-74
2021/09/25 08:06:26;;;;;;;16.70;15.73;;;;;;;20.85;60.04;98454.63;4951550;28;20031;-79
2021/09/25 08:08:52;;;;;;;18.80;17.83;;;;;;;20.42;61.90;98457.22;4959361;28;20024;-82
2021/09/25 08:11:18;;;;;;;20.90;19.83;;;;;;;20.54;62.58;98458.03;4958756;28;20027;-76
2021/09/25 08:13:43;;;;;;;19.13;18.10;;;;;;;20.79;60.87;98461.59;4948466;29;20019;-80
2021/09/25 08:16:09;;;;;;;15.07;14.32;;;;;;;21.13;59.42;98451.94;4952641;28;20027;-77
2021/09/25 08:18:35;;;;;;;16.50;15.60;;;;;;;21.21;59.00;98450.97;4963590;28;20039;-78
2021/09/25 08:21:02;;;;;;;17.50;16.15;;;;;;;20.97;59.88;98451.81;4956143;28;20082;-85
2021/09/25 08:23:27;;;;;;;14.38;13.68;;;;;;;22.17;57.43;98446.09;4962564;28;20085;-76
2021/09/25 08:25:53;;;;;;;16.23;15.45;;;;;;;21.45;57.84;98455.66;4954062;28;20035;-78
2021/09/25 08:28:19;;;;;;;14.70;14.00;;;;;;;21.23;59.02;98459.78;4949173;28;20131;-80
2021/09/25 08:30:45;;;;;;;16.10;15.13;;;;;;;21.25;60.32;98458.28;4953095;29;20046;-78
2021/09/25 08:33:10;;;;;;;17.13;16.25;;;;;;;22.12;59.15;98461.09;4935834;29;20031;-79
2021/09/25 08:35:36;;;;;;;19.73;18.55;;;;;;;21.31;59.36;98456.84;4952028;29;20027;-74
2021/09/25 08:38:02;;;;;;;19.08;18.17;;;;;;;21.03;60.07;98458.75;4952650;29;20046;-75
2021/09/25 08:40:28;;;;;;;16.20;15.40;;;;;;;21.59;58.44;98467.19;4952951;29;20050;-75
2021/09/25 08:42:54;;;;;;;19.05;18.10;;;;;;;22.06;57.03;98470.91;4954366;29;20039;-78
2021/09/25 08:45:20;;;;;;;17.23;16.42;;;;;;;21.76;59.13;98461.31;4949637;29;20027;-79
2021/09/25 08:47:46;;;;;;;19.05;18.05;;;;;;;22.36;55.50;98463.75;4940357;29;20396;-75
2021/09/25 08:50:14;;;;;;;19.95;18.75;;;;;;;22.68;55.55;98469.31;4951908;29;20034;-78
2021/09/25 08:52:41;;;;;;;16.25;15.35;;;;;;;22.84;54.01;98467.28;4935930;29;20061;-80
2021/09/25 08:55:11;;;;;;;17.48;16.38;;;;;;;22.94;53.66;98461.16;4953214;28;20138;-76
2021/09/25 08:57:39;;;;;;;15.57;14.68;;;;;;;22.79;54.24;98464.78;4946457;29;20035;-76
2021/09/25 09:00:35;;;;;;;16.25;15.20;;;;;;;23.27;53.09;98469.88;4952130;29;20738;-77
2021/09/25 09:03:27;;;;;;;16.83;15.85;;;;;;;23.15;53.47;98464.41;4952462;29;20023;-78
2021/09/25 09:06:07;;;;;;;16.58;15.45;;;;;;;22.80;55.35;98463.63;4944240;29;20043;-79
2021/09/25 09:08:34;;;;;;;16.85;15.98;;;;;;;25.10;49.53;98454.03;4951683;28;20062;-78
2021/09/25 09:19:48;;;;;;;15.57;14.73;;;;;;;25.30;53.36;98470.34;5036183;23;20066;-78
2021/09/25 09:22:17;;;;;;;15.60;14.60;;;;;;;24.85;48.24;98467.66;4978179;28;20188;-78
2021/09/25 09:24:50;;;;;;;20.05;18.95;;;;;;;24.25;50.22;98467.47;4980461;28;20015;-78
2021/09/25 09:27:22;;;;;;;14.75;14.05;;;;;;;24.39;50.51;98459.31;4956909;28;20025;-78
2021/09/25 09:29:47;;;;;;;18.38;17.40;;;;;;;23.99;51.12;98461.78;4973295;28;20081;-78
2021/09/25 09:32:16;;;;;;;21.23;19.92;;;;;;;24.98;49.04;98463.47;4969761;28;20022;-76
2021/09/25 09:34:43;;;;;;;18.35;17.55;;;;;;;25.49;47.59;98461.81;4974132;28;20082;-78
2021/09/25 09:37:20;;;;;;;17.92;16.45;;;;;;;26.30;44.62;98461.09;4970270;28;20066;-77
2021/09/25 09:40:00;;;;;;;16.38;15.52;;;;;;;25.28;49.80;98461.47;4971356;28;20034;-80
2021/09/25 09:42:32;;;;;;;15.85;14.75;;;;;;;25.32;47.13;98459.53;4952367;29;20019;-79
2021/09/25 09:44:58;;;;;;;15.77;14.77;;;;;;;27.34;45.07;98465.13;4974780;28;20027;-77
2021/09/25 09:47:24;;;;;;;14.93;14.23;;;;;;;25.54;46.16;98457.84;4973135;28;20480;-77
2021/09/25 09:49:56;;;;;;;14.13;13.43;;;;;;;25.63;46.64;98460.34;4977504;28;20090;-76
2021/09/25 09:52:31;;;;;;;14.43;13.32;;;;;;;24.72;49.83;98449.44;4956154;28;21197;-79
2021/09/25 09:54:56;;;;;;;16.83;15.63;;;;;;;24.79;49.70;98443.97;4962235;28;20562;-80
2021/09/25 09:57:22;;;;;;;14.63;13.80;;;;;;;24.95;48.85;98453.03;4973345;28;20051;-80
2021/09/25 09:59:50;;;;;;;15.20;14.40;;;;;;;25.58;47.49;98441.09;4962583;28;20387;-78
2021/09/25 10:02:17;;;;;;;14.00;13.30;;;;;;;26.13;45.41;98445.69;4971871;28;20033;-80
2021/09/25 10:04:46;;;;;;;14.55;13.88;;;;;;;25.56;47.03;98441.47;4964923;28;20046;-77
2021/09/25 10:07:11;;;;;;;15.35;14.55;;;;;;;27.75;42.08;98453.66;4970363;28;20090;-78
2021/09/25 10:09:40;;;;;;;16.40;14.52;;;;;;;26.83;44.16;98439.09;4954814;28;20038;-78
2021/09/25 10:12:17;;;;;;;14.40;13.63;;;;;;;25.92;47.55;98445.47;4968160;28;20029;-80
2021/09/25 10:14:47;;;;;;;15.75;14.80;;;;;;;25.78;47.50;98446.13;4971197;28;20126;-78
2021/09/25 10:17:16;;;;;;;15.25;14.13;;;;;;;25.85;47.20;98439.78;4958386;28;20023;-77
2021/09/25 10:19:43;;;;;;;14.88;13.98;;;;;;;25.93;46.82;98433.06;4963773;28;20046;-78
2021/09/25 10:22:16;;;;;;;15.63;14.82;;;;;;;25.90;47.25;98422.63;4968023;28;20018;-77
2021/09/25 10:25:11;;;;;;;15.48;14.75;;;;;;;26.44;45.60;98431.16;4971225;28;20074;-79
2021/09/25 10:27:40;;;;;;;16.95;15.95;;;;;;;25.70;46.03;98435.22;4968120;28;20177;-81
2021/09/25 10:30:08;;;;;;;17.38;16.15;;;;;;;25.09;49.05;98441.22;4967311;28;20057;-81
2021/09/25 10:32:40;;;;;;;16.27;15.32;;;;;;;23.76;52.23;98419.81;4970080;28;20050;-78
2021/09/25 10:35:28;;;;;;;16.23;15.43;;;;;;;23.76;52.53;98416.22;4953308;28;20546;-78
2021/09/25 10:37:58;;;;;;;16.80;16.02;;;;;;;24.19;51.84;98418.63;4955608;28;20034;-78
2021/09/25 10:40:35;;;;;;;15.70;14.90;;;;;;;25.37;48.81;98414.38;4970188;28;20030;-78
2021/09/25 10:43:17;;;;;;;15.70;14.90;;;;;;;26.02;47.11;98411.13;4947416;28;20027;-78
2021/09/25 10:45:44;;;;;;;17.52;16.52;;;;;;;26.49;46.34;98408.38;4954057;28;20092;-78
2021/09/25 10:48:24;;;;;;;17.55;16.65;;;;;;;28.13;42.85;98413.59;4952914;28;20022;-77
2021/09/25 10:51:17;;;;;;;15.90;14.40;;;;;;;28.91;39.59;98399.50;4971361;28;20067;-77
2021/09/25 10:53:46;;;;;;;14.45;13.75;;;;;;;28.23;40.76;98397.91;4961241;28;20062;-78
2021/09/25 10:56:21;;;;;;;15.25;14.50;;;;;;;28.07;41.50;98401.09;4970378;28;20038;-79
2021/09/25 10:59:06;;;;;;;13.32;12.55;;;;;;;28.21;41.77;98397.50;4968622;28;20431;-79
2021/09/25 11:01:43;;;;;;;15.13;14.40;;;;;;;28.47;41.73;98402.75;4969822;28;20483;-80
2021/09/25 11:04:10;;;;;;;13.45;12.77;;;;;;;27.22;42.54;98383.97;4953934;28;20038;-75
2021/09/25 11:06:49;;;;;;;13.30;12.77;;;;;;;26.88;42.84;98380.56;4951627;29;20042;-76
2021/09/25 11:09:14;;;;;;;16.38;15.45;;;;;;;26.13;45.25;98385.97;4952851;28;20041;-77
2021/09/25 11:11:46;;;;;;;15.55;14.85;;;;;;;25.60;47.40;98382.66;4973363;28;20026;-76
2021/09/25 11:14:22;;;;;;;18.30;17.20;;;;;;;25.43;46.47;98390.47;4960451;28;20115;-76
2021/09/25 11:16:58;;;;;;;18.02;17.17;;;;;;;24.49;49.25;98385.16;4965848;28;20137;-77
2021/09/25 11:19:26;;;;;;;20.20;19.20;;;;;;;24.57;49.43;98380.44;4979516;28;20094;-79
2021/09/25 11:22:08;;;;;;;20.90;19.95;;;;;;;24.29;50.14;98376.03;4981262;28;20054;-79
2021/09/25 11:25:05;;;;;;;16.63;15.93;;;;;;;24.52;49.76;98384.41;4979910;28;20022;-77
2021/09/25 11:27:34;;;;;;;18.40;17.42;;;;;;;24.40;49.04;98373.41;4972807;28;20065;-79
2021/09/25 11:30:03;;;;;;;17.45;16.30;;;;;;;24.56;49.45;98367.66;4973032;28;20045;-76
2021/09/25 11:32:31;;;;;;;16.10;15.30;;;;;;;25.03;48.34;98371.53;4958475;28;20085;-78
2021/09/25 11:35:00;;;;;;;15.13;14.23;;;;;;;24.98;48.24;98368.28;4956630;28;20029;-76
2021/09/25 11:37:29;;;;;;;15.57;14.77;;;;;;;25.08;49.03;98359.22;4974423;28;20027;-77
2021/09/25 11:39:55;;;;;;;15.38;14.57;;;;;;;24.84;48.52;98359.69;4969905;28;20030;-78
2021/09/25 11:42:25;;;;;;;14.43;13.82;;;;;;;24.14;50.57;98363.00;4992086;28;20038;-80
2021/09/25 11:45:06;;;;;;;15.93;15.23;;;;;;;24.27;50.25;98356.03;4983626;28;20034;-76
2021/09/25 11:47:40;;;;;;;15.85;14.95;;;;;;;24.48;49.46;98352.75;4991241;28;20479;-78
2021/09/25 11:50:22;;;;;;;16.90;15.88;;;;;;;24.66;49.49;98355.78;4992413;28;20483;-78
2021/09/25 11:52:51;;;;;;;17.65;16.52;;;;;;;24.73;49.29;98367.91;4989696;28;20035;-78
2021/09/25 11:55:21;;;;;;;24.70;23.00;;;;;;;24.91;49.32;98354.19;4972573;28;20026;-77
2021/09/25 11:57:58;;;;;;;16.33;15.52;;;;;;;24.91;49.72;98362.56;4970951;28;20038;-75
2021/09/25 12:00:30;;;;;;;16.70;15.90;;;;;;;24.72;49.83;98368.28;4975943;28;20034;-80
2021/09/25 12:02:57;;;;;;;15.65;14.85;;;;;;;24.51;50.04;98363.19;4967978;28;20027;-80
2021/09/25 12:05:27;;;;;;;16.48;15.68;;;;;;;24.53;50.06;98355.22;4968092;28;20023;-79
2021/09/25 12:07:54;;;;;;;15.05;14.35;;;;;;;24.48;48.93;98344.38;4957570;28;20122;-85
2021/09/25 12:10:22;;;;;;;15.80;14.77;;;;;;;24.40;49.95;98349.03;4973419;28;20447;-83
2021/09/25 12:12:57;;;;;;;16.25;15.45;;;;;;;24.36;49.26;98345.41;4963094;28;20122;-83
2021/09/25 12:15:30;;;;;;;15.10;14.30;;;;;;;24.52;49.69;98340.44;4954500;29;20030;-78
2021/09/25 12:18:19;;;;;;;15.35;14.45;;;;;;;24.40;49.81;98337.84;4974505;28;20089;-81
2021/09/25 12:20:49;;;;;;;18.00;16.75;;;;;;;24.14;50.36;98343.44;4962077;28;20066;-78
2021/09/25 12:23:18;;;;;;;18.42;17.17;;;;;;;24.30;50.20;98344.09;4953055;28;20031;-80
2021/09/25 12:25:44;;;;;;;16.30;15.27;;;;;;;24.09;51.16;98331.75;4948810;28;20093;-78
2021/09/25 12:28:29;;;;;;;16.65;15.80;;;;;;;24.13;49.66;98339.03;4968548;28;20494;-78
2021/09/25 12:30:56;;;;;;;16.13;15.23;;;;;;;24.23;49.88;98332.00;4966702;28;20205;-82
2021/09/25 12:33:22;;;;;;;16.83;16.02;;;;;;;23.89;50.35;98331.00;4970711;28;20025;-78
2021/09/25 12:36:08;;;;;;;19.13;18.13;;;;;;;23.74;51.22;98326.38;4964410;28;20023;-78